Latest Weather Observations for St Helens

IDT60801

Issued at 11:01 pm EST Tuesday 7 July 2015 (issued every 30 minutes, with the page automatically refreshed every 10 minutes)

About weather observations | Map of weather stations | Latest weather observations for TAS | Other Formats
Station Details ID: 092120 Name: ST HELENS AERODROME Lat: -41.34 Lon: 148.28 Height: 48.0 m
Data from the previous 72 hours. | See also: Recent months at St Helens
Date/Time
EST
Temp
°C
App
Temp
°C
Dew
Point
Rel
Hum
%
Delta-T
°C
Wind Press
QNH
hPa
Press
MSL
hPa
Rain
since 9 am
mm
Dir
 
Spd
km/h
Gust
km/h
Spd
kts
Gust
kts
07/11:00pm 2.5 -1.3 1.6 94 0.3 NW 11 15 6 8 1027.9 - 0.0
07/10:30pm 2.4 -1.8 1.4 93 0.4 NW 13 17 7 9 1027.8 - 0.0
07/10:00pm 2.7 -1.1 1.7 93 0.4 NW 11 17 6 9 1027.8 - 0.0
07/09:30pm 2.9 -1.7 1.7 92 0.5 NW 15 17 8 9 1027.8 - 0.0
07/09:00pm 3.1 -0.7 1.8 91 0.5 NNW 11 13 6 7 1027.6 1027.7 0.0
07/08:30pm 3.4 0.0 2.1 91 0.5 NW 9 15 5 8 1027.5 - 0.0
07/08:00pm 3.8 0.5 2.3 90 0.6 NW 9 15 5 8 1027.4 - 0.0
07/07:30pm 4.3 1.3 2.2 86 0.8 NW 7 11 4 6 1027.2 - 0.0
07/07:00pm 5.7 2.2 1.4 74 1.7 SSW 9 13 5 7 1027.0 - 0.0
07/06:30pm 5.9 2.1 1.6 74 1.7 S 11 17 6 9 1026.7 - 0.0
07/06:00pm 5.9 1.7 1.8 75 1.6 SSW 13 17 7 9 1026.4 1026.6 0.0
07/05:30pm 6.2 2.4 1.7 73 1.8 S 11 15 6 8 1026.2 - 0.0
07/05:00pm 6.5 3.1 2.0 73 1.8 S 9 13 5 7 1025.9 - 0.0
07/04:30pm 7.5 4.2 2.2 69 2.2 S 9 17 5 9 1025.6 - 0.0
07/04:00pm 8.6 4.2 2.6 66 2.5 S 15 24 8 13 1025.3 - 0.0
07/03:30pm 9.1 5.1 3.1 66 2.6 S 13 26 7 14 1025.1 - 0.0
07/03:00pm 9.5 5.1 2.6 62 2.9 S 15 26 8 14 1024.9 1025.0 0.0
07/02:30pm 9.5 5.1 2.6 62 2.9 S 15 33 8 18 1024.6 - 0.0
07/02:00pm 10.0 5.7 3.1 62 3.0 S 15 26 8 14 1024.4 - 0.0
07/01:30pm 9.6 4.4 2.2 60 3.1 SSW 19 26 10 14 1024.4 - 0.0
07/01:00pm 9.7 4.5 2.6 61 3.0 S 19 30 10 16 1024.4 - 0.0
07/12:30pm 9.5 4.7 2.6 62 2.9 S 17 28 9 15 1024.7 - 0.0
07/12:00pm 8.9 4.9 2.7 65 2.6 S 13 19 7 10 1024.8 1024.9 0.0
07/11:30am 9.1 4.8 3.3 67 2.5 SSW 15 26 8 14 1024.8 - 0.0
07/11:00am 8.8 4.0 2.8 66 2.5 SW 17 24 9 13 1024.8 - 0.0
07/10:30am 8.2 3.3 2.2 66 2.5 S 17 32 9 17 1024.9 - 0.0
07/10:00am 7.3 2.8 2.0 69 2.2 SSW 15 22 8 12 1024.5 - 0.0
07/09:30am 6.6 2.4 1.7 71 2.0 SSW 13 20 7 11 1024.2 - 0.0
07/09:00am 5.9 1.3 1.6 74 1.7 SSW 15 24 8 13 1023.9 1024.0 0.0
07/08:30am 5.1 1.2 1.0 75 1.6 SSW 11 19 6 10 1023.8 - 0.0
07/08:00am 4.5 0.6 1.0 78 1.4 SSW 11 20 6 11 1023.4 - 0.0
07/07:30am 4.4 0.4 0.7 77 1.4 SW 11 20 6 11 1023.1 - 0.0
07/07:00am 4.4 0.4 0.7 77 1.4 SSW 11 17 6 9 1022.7 - 0.0
07/06:30am 4.1 0.1 0.4 77 1.4 SW 11 15 6 8 1022.5 - 0.0
07/06:00am 4.8 0.8 0.8 75 1.5 SSW 11 19 6 10 1022.1 1022.2 0.0
07/05:30am 4.7 0.3 0.3 73 1.7 SSW 13 20 7 11 1021.7 - 0.0
07/05:00am 4.6 1.0 0.6 75 1.5 SSW 9 17 5 9 1021.3 - 0.0
07/04:30am 4.8 0.0 0.4 73 1.7 SSW 15 22 8 12 1021.0 - 0.0
07/04:00am 4.8 1.2 0.6 74 1.6 SSW 9 17 5 9 1020.7 - 0.0
07/03:30am 4.8 0.5 0.8 75 1.6 SSW 13 24 7 13 1020.7 - 0.0
07/03:00am 4.4 0.8 0.4 75 1.5 SW 9 17 5 9 1020.9 1021.0 0.0
07/02:30am 4.0 0.3 0.2 76 1.4 SW 9 13 5 7 1020.9 - 0.0
07/02:00am 4.5 0.9 0.8 77 1.4 SW 9 15 5 8 1020.6 - 0.0
07/01:30am 3.9 0.8 1.1 82 1.1 NW 7 11 4 6 1020.4 - 0.0
07/01:00am 4.7 1.5 0.7 75 1.5 SW 7 13 4 7 1020.2 - 0.0
07/12:30am 5.0 1.0 0.8 74 1.6 SW 11 20 6 11 1020.2 - 0.0
07/12:00am 4.8 1.8 0.6 74 1.6 WSW 6 9 3 5 1020.1 1020.2 0.0
 
Date/Time
EST
Temp
°C
App
Temp
°C
Dew
Point
Rel
Hum
%
Delta-T
°C
Wind Press
QNH
hPa
Press
MSL
hPa
Rain
since 9 am
mm
Dir
 
Spd
km/h
Gust
km/h
Spd
kts
Gust
kts
06/11:30pm 4.4 0.8 0.4 75 1.5 SW 9 15 5 8 1020.2 - 0.0
06/11:00pm 4.0 0.3 0.2 76 1.4 SW 9 17 5 9 1020.1 - 0.0
06/10:30pm 4.7 1.1 0.5 74 1.6 SW 9 15 5 8 1020.1 - 0.0
06/10:00pm 4.8 0.8 0.4 73 1.7 SSW 11 15 6 8 1020.1 - 0.0
06/09:30pm 4.4 1.1 0.2 74 1.6 SW 7 11 4 6 1019.8 - 0.0
06/09:00pm 4.9 0.9 0.5 73 1.7 S 11 20 6 11 1019.7 1019.8 0.0
06/08:30pm 5.2 1.1 -0.2 68 2.1 SSW 11 17 6 9 1019.4 - 0.0
06/08:00pm 6.1 0.9 0.0 65 2.4 S 17 24 9 13 1019.0 - 0.0
06/07:30pm 5.3 1.3 0.3 70 1.9 SSW 11 19 6 10 1018.7 - 0.0
06/07:00pm 5.7 1.4 0.7 70 2.0 SSW 13 20 7 11 1018.5 - 0.0
06/06:30pm 6.0 1.7 1.3 72 1.9 SSW 13 22 7 12 1018.2 - 0.0
06/06:00pm 5.8 1.2 1.3 73 1.8 S 15 24 8 13 1017.8 1017.9 0.0
06/05:30pm 6.0 1.4 1.5 73 1.8 S 15 20 8 11 1017.4 - 0.0
06/05:00pm 6.1 2.0 2.2 76 1.6 S 13 20 7 11 1017.1 - 0.0
06/04:30pm 7.1 2.4 3.0 75 1.7 S 17 22 9 12 1016.8 - 0.0
06/04:00pm 7.7 2.6 3.0 72 2.0 S 19 37 10 20 1016.5 - 0.0
06/03:30pm 7.9 3.2 3.0 71 2.1 S 17 30 9 16 1016.2 - 0.0
06/03:00pm 7.9 2.7 2.4 68 2.3 S 19 30 10 16 1015.9 1016.0 0.0
06/02:30pm 8.9 3.6 2.9 66 2.6 S 20 33 11 18 1015.6 - 0.0
06/02:00pm 8.9 3.2 3.1 67 2.5 S 22 39 12 21 1015.4 - 0.0
06/01:30pm 8.4 2.9 4.0 74 1.9 S 22 33 12 18 1015.5 - 0.0
06/01:00pm 8.4 2.0 3.3 70 2.2 S 26 43 14 23 1015.4 - 0.0
06/12:30pm 8.1 2.9 3.8 74 1.9 S 20 32 11 17 1015.4 - 0.0
06/12:00pm 8.0 3.1 4.0 76 1.7 S 19 28 10 15 1015.6 1015.7 0.0
06/11:30am 8.2 3.1 4.2 76 1.7 S 20 33 11 18 1015.7 - 0.0
06/11:00am 8.3 4.2 4.5 77 1.7 S 15 24 8 13 1015.9 - 0.0
06/10:30am 7.8 3.7 4.6 80 1.4 S 15 22 8 12 1016.0 - 0.0
06/10:00am 7.3 3.3 5.1 86 1.0 S 15 26 8 14 1015.9 - 0.0
06/09:30am 7.3 3.0 5.3 87 0.9 S 17 28 9 15 1015.5 - 0.0
06/09:00am 7.3 2.6 5.9 91 0.6 S 20 32 11 17 1015.2 1015.3 17.2
06/08:30am 7.3 2.9 6.4 94 0.4 S 19 30 10 16 1015.0 - 17.2
06/08:02am 7.1 3.1 6.8 98 0.1 S 17 26 9 14 1014.8 - 17.2
06/08:00am 7.1 3.1 6.8 98 0.1 S 17 26 9 14 1014.8 - 17.2
06/07:30am 7.1 3.2 7.0 99 0.0 S 17 24 9 13 1014.6 - 17.2
06/07:00am 7.1 3.6 7.0 99 0.0 S 15 22 8 12 1014.3 - 17.2
06/06:30am 7.2 3.3 7.1 99 0.0 S 17 28 9 15 1014.1 - 17.0
06/06:00am 7.5 3.3 7.4 99 0.0 S 19 32 10 17 1014.0 1014.0 17.0
06/05:38am 7.5 3.7 7.4 99 0.0 S 17 24 9 13 1013.8 - 17.0
06/05:30am 7.5 3.7 7.4 99 0.0 S 17 30 9 16 1013.8 - 17.0
06/05:20am 7.5 3.7 7.4 99 0.0 S 17 28 9 15 1013.8 - 17.0
06/05:00am 7.6 3.8 7.5 99 0.0 S 17 22 9 12 1013.7 - 17.0
06/04:31am 7.2 4.4 7.1 99 0.0 S 11 17 6 9 1013.6 - 16.8
06/04:30am 7.3 4.6 7.2 99 0.0 S 11 17 6 9 1013.6 - 16.8
06/04:06am 7.2 4.4 7.1 99 0.0 S 11 15 6 8 1013.4 - 16.8
06/04:00am 7.2 4.4 7.1 99 0.0 S 11 17 6 9 1013.4 - 16.8
06/03:30am 7.3 5.9 7.2 99 0.0 SW 4 11 2 6 1013.7 - 16.4
06/03:08am 7.4 5.6 7.3 99 0.0 WNW 6 7 3 4 1014.0 - 15.4
06/03:00am 7.3 5.5 7.2 99 0.0 W 6 9 3 5 1014.0 1014.0 15.0
06/02:30am 7.2 4.8 7.1 99 0.0 S 9 15 5 8 1013.9 - 14.2
06/02:00am 7.2 4.4 6.9 98 0.1 S 11 17 6 9 1013.8 - 13.4
06/01:30am 7.2 5.2 6.9 98 0.1 S 7 13 4 7 1014.1 - 12.4
06/01:00am 7.2 5.3 6.8 97 0.2 SW 6 11 3 6 1014.2 - 11.2
06/12:30am 7.2 4.0 6.8 97 0.2 S 13 20 7 11 1014.3 - 10.0
06/12:00am 7.2 4.3 6.6 96 0.3 S 11 17 6 9 1014.6 1014.6 9.0
 
Date/Time
EST
Temp
°C
App
Temp
°C
Dew
Point
Rel
Hum
%
Delta-T
°C
Wind Press
QNH
hPa
Press
MSL
hPa
Rain
since 9 am
mm
Dir
 
Spd
km/h
Gust
km/h
Spd
kts
Gust
kts
05/11:30pm 7.3 4.8 6.6 95 0.3 S 9 15 5 8 1014.7 - 7.4
05/11:00pm 7.6 5.1 6.7 94 0.4 S 9 15 5 8 1014.8 - 5.4
05/10:30pm 7.8 5.8 6.9 94 0.4 S 7 11 4 6 1014.7 - 4.6
05/10:00pm 8.0 6.0 6.9 93 0.5 S 7 11 4 6 1014.7 - 4.2
05/09:30pm 8.1 6.3 7.0 93 0.5 S 6 9 3 5 1014.7 - 3.8
05/09:00pm 8.3 6.8 6.9 91 0.7 SSE 4 6 2 3 1014.7 1014.8 3.6
05/08:30pm 8.6 6.6 7.2 91 0.7 S 7 13 4 7 1014.5 - 3.6
05/08:00pm 8.5 6.7 7.3 92 0.6 S 6 9 3 5 1014.6 - 3.4
05/07:30pm 8.6 8.0 7.4 92 0.6 CALM 0 0 0 0 1014.5 - 3.4
05/07:00pm 8.6 6.9 7.4 92 0.6 S 6 7 3 4 1014.4 - 3.4
05/06:30pm 8.6 7.6 7.4 92 0.6 SSW 2 6 1 3 1014.1 - 3.4
05/06:00pm 8.7 7.4 7.6 93 0.5 SW 4 6 2 3 1014.0 1014.0 3.4
05/05:30pm 8.9 8.4 7.8 93 0.5 CALM 0 0 0 0 1013.8 - 3.4
05/05:00pm 8.8 7.1 7.7 93 0.5 SSW 6 7 3 4 1013.6 - 3.4
05/04:30pm 8.9 7.1 7.8 93 0.5 S 7 11 4 6 1013.6 - 3.4
05/04:00pm 9.0 7.2 7.9 93 0.5 S 7 9 4 5 1013.3 - 3.4
05/03:30pm 9.0 8.4 7.6 91 0.7 CALM 0 4 0 2 1013.2 - 3.4
05/03:00pm 9.1 7.4 7.7 91 0.7 SSW 6 9 3 5 1013.1 1013.1 3.2
05/02:30pm 9.1 7.2 7.5 90 0.8 S 7 13 4 7 1013.0 - 3.2
05/02:00pm 9.2 7.6 8.0 92 0.6 S 6 9 3 5 1013.2 - 3.0
05/01:30pm 9.1 8.6 8.0 93 0.5 CALM 0 0 0 0 1013.2 - 3.0
05/01:26pm 8.9 8.4 7.7 92 0.6 CALM 0 6 0 3 1013.2 - 3.0
05/01:00pm 8.7 8.1 7.5 92 0.6 CALM 0 0 0 0 1013.2 - 3.0
05/12:45pm 8.4 7.3 7.0 91 0.7 SW 2 6 1 3 1013.3 - 3.0
05/12:30pm 8.2 6.4 7.0 92 0.6 S 6 7 3 4 1013.4 - 2.8
05/12:00pm 8.2 7.5 6.8 91 0.6 CALM 0 0 0 0 1013.8 1013.8 1.8
05/11:30am 8.0 7.2 6.3 89 0.8 CALM 0 0 0 0 1014.1 - 1.6
05/11:00am 7.7 6.6 5.3 85 1.1 CALM 0 0 0 0 1014.5 - 1.4
05/10:30am 7.6 6.3 4.2 79 1.5 CALM 0 0 0 0 1014.8 - 1.0
05/10:00am 7.9 5.5 4.1 77 1.7 SSE 6 9 3 5 1014.7 - 0.4
05/09:30am 8.4 7.0 3.8 73 2.0 CALM 0 0 0 0 1014.7 - 0.0
05/09:00am 9.8 7.3 4.0 67 2.6 SW 6 9 3 5 1014.3 1014.3 0.0
05/08:30am 8.9 7.0 0.4 55 3.4 CALM 0 0 0 0 1014.3 - 0.0
05/08:00am 9.3 7.0 0.7 55 3.5 SSE 2 6 1 3 1014.2 - 0.0
05/07:30am 9.2 6.1 1.6 59 3.2 WSW 7 11 4 6 1014.2 - 0.0
05/07:00am 9.1 6.1 1.0 57 3.3 WSW 6 9 3 5 1014.1 - 0.0
05/06:30am 8.4 6.6 1.1 60 3.0 CALM 0 0 0 0 1014.2 - 0.0
05/06:00am 8.6 6.8 1.3 60 3.0 CALM 0 0 0 0 1014.0 1014.0 0.0
05/05:30am 8.9 6.9 -0.4 52 3.7 CALM 0 2 0 1 1014.0 - 0.0
05/05:00am 9.1 6.7 -0.5 51 3.8 SE 2 6 1 3 1013.8 - 0.0
05/04:30am 9.4 7.5 0.6 54 3.6 CALM 0 0 0 0 1013.7 - 0.0
05/04:00am 9.2 6.2 2.1 61 3.0 NNW 7 9 4 5 1013.6 - 0.0
05/03:30am 9.1 5.8 2.2 62 2.9 NW 9 17 5 9 1013.8 - 0.0
05/03:00am 8.7 5.5 2.9 67 2.5 WNW 9 11 5 6 1013.9 1013.9 0.0
05/02:30am 8.5 5.9 4.3 75 1.8 NNW 7 11 4 6 1014.3 - 0.0
05/02:00am 8.5 6.0 3.8 72 2.0 NW 6 7 3 4 1014.5 - 0.0
05/01:30am 8.4 5.4 4.0 74 1.9 NNW 9 11 5 6 1014.1 - 0.0
05/01:00am 7.9 5.2 3.9 76 1.7 NNW 7 11 4 6 1014.3 - 0.0
05/12:30am 9.1 6.2 2.4 63 2.8 W 7 9 4 5 1014.3 - 0.0
05/12:00am 8.6 5.5 3.6 71 2.2 NNW 9 11 5 6 1014.4 1014.5 0.0
 
Date/Time
EST
Temp
°C
App
Temp
°C
Dew
Point
Rel
Hum
%
Delta-T
°C
Wind Press
QNH
hPa
Press
MSL
hPa
Rain
since 9 am
mm
Dir
 
Spd
km/h
Gust
km/h
Spd
kts
Gust
kts
04/11:30pm 8.9 6.8 4.1 72 2.1 NNW 4 7 2 4 1014.5 - 0.0

Other Formats:

Comma delimited format used in spreadsheet applications
http://www.bom.gov.au/fwo/IDT60801/IDT60801.95981.axf

JavaScript Object Notation format (JSON) in row-major order
http://www.bom.gov.au/fwo/IDT60801/IDT60801.95981.json